Time;durP1;ratioP1;P1;durP2;ratioP2;P2;SDS_P1;SDS_P2;PMS_P1;PMS_P2;Temp;Humidity;BMP_temperature;BMP_pressure;BME280_temperature;BME280_humidity;BME280_pressure;Samples;Min_cycle;Max_cycle;Signal;HPM_P1;HPM_P2
2022/06/29 00:01:17;;;;;;;;;1.00;0.33;;;;;23.17;39.43;101237.16;5059001;28;75827;-59
2022/06/29 00:03:44;;;;;;;;;4.33;3.00;;;;;23.14;38.99;101238.31;5062822;27;66409;-59
2022/06/29 00:06:10;;;;;;;;;1.33;1.00;;;;;23.10;39.22;101251.25;5047041;28;45375;-60
2022/06/29 00:08:35;;;;;;;;;3.00;2.00;;;;;23.08;39.41;101241.56;5059978;28;45449;-59
2022/06/29 00:11:01;;;;;;;;;2.00;2.00;;;;;23.04;39.56;101249.13;5057251;28;73943;-60
2022/06/29 00:13:26;;;;;;;;;2.00;1.33;;;;;23.02;39.98;101247.56;5056429;28;73131;-59
2022/06/29 00:15:51;;;;;;;;;1.00;1.00;;;;;23.00;39.87;101233.28;5057748;28;62968;-59
2022/06/29 00:18:17;;;;;;;;;2.00;2.00;;;;;22.98;39.72;101232.59;5056571;28;66279;-59
2022/06/29 00:20:42;;;;;;;;;1.33;1.33;;;;;22.96;39.99;101238.19;5058935;28;47221;-59
2022/06/29 00:23:07;;;;;;;;;0.67;0.33;;;;;22.94;39.66;101240.16;5062168;28;70039;-59
2022/06/29 00:25:33;;;;;;;;;2.67;2.67;;;;;22.89;40.52;101242.47;5060568;28;47671;-59
2022/06/29 00:27:58;;;;;;;;;3.33;3.00;;;;;22.86;40.07;101237.34;5063173;27;63745;-59
2022/06/29 00:30:23;;;;;;;;;3.33;3.33;;;;;22.84;40.52;101233.91;5058335;28;72719;-59
2022/06/29 00:32:49;;;;;;;;;2.67;2.00;;;;;22.78;40.35;101232.66;5057027;28;56838;-59
2022/06/29 00:35:14;;;;;;;;;2.33;2.33;;;;;22.76;40.54;101231.94;5051560;28;56758;-59
2022/06/29 00:37:40;;;;;;;;;2.00;2.00;;;;;22.73;41.34;101233.09;5059017;28;45732;-59
2022/06/29 00:40:06;;;;;;;;;4.00;2.00;;;;;22.73;40.93;101226.81;5065350;28;45606;-59
2022/06/29 00:42:31;;;;;;;;;3.00;2.00;;;;;22.72;41.24;101223.25;5061695;27;45342;-59
2022/06/29 00:44:57;;;;;;;;;2.33;1.67;;;;;22.70;41.16;101227.97;5058492;28;45666;-59
2022/06/29 00:47:22;;;;;;;;;2.00;2.00;;;;;22.65;41.35;101221.28;5055999;28;45396;-59
2022/06/29 00:49:47;;;;;;;;;2.00;2.00;;;;;22.61;41.43;101223.41;5055397;28;56850;-59
2022/06/29 00:52:15;;;;;;;;;1.67;1.67;;;;;22.57;41.76;101217.44;5059821;28;45414;-59
2022/06/29 00:54:43;;;;;;;;;2.33;0.33;;;;;22.55;41.62;101218.56;5054816;27;45526;-59
2022/06/29 00:57:16;;;;;;;;;2.33;2.33;;;;;22.54;41.72;101215.03;5052575;28;45330;-59
2022/06/29 00:59:52;;;;;;;;;1.00;0.67;;;;;22.54;42.15;101216.84;5064065;28;45846;-59
2022/06/29 01:02:20;;;;;;;;;1.33;1.33;;;;;22.53;41.87;101210.59;5063550;27;45347;-59
2022/06/29 01:04:46;;;;;;;;;2.33;2.00;;;;;22.52;41.80;101208.88;5049116;28;45436;-59
2022/06/29 01:07:13;;;;;;;;;3.00;3.00;;;;;22.52;41.76;101213.44;5059772;27;45407;-59
2022/06/29 01:09:39;;;;;;;;;3.00;1.00;;;;;22.50;42.05;101216.28;5056025;28;46178;-59
2022/06/29 01:12:04;;;;;;;;;7.33;2.67;;;;;22.50;42.57;101212.72;5061701;28;45494;-59
2022/06/29 01:14:30;;;;;;;;;3.33;1.33;;;;;22.49;41.88;101209.19;5038121;28;45371;-59
2022/06/29 01:16:56;;;;;;;;;1.00;1.00;;;;;22.48;42.70;101212.88;5042403;28;45300;-59
2022/06/29 01:19:22;;;;;;;;;2.00;1.33;;;;;22.47;42.62;101211.16;5058926;28;47387;-59
2022/06/29 01:21:50;;;;;;;;;1.33;1.00;;;;;22.45;42.38;101210.47;5055027;28;45592;-59
2022/06/29 01:24:15;;;;;;;;;3.00;3.00;;;;;22.45;42.57;101213.19;5040014;28;45527;-59
2022/06/29 01:26:40;;;;;;;;;2.00;2.00;;;;;22.44;42.51;101217.72;5055377;28;70473;-59
2022/06/29 01:29:06;;;;;;;;;3.00;3.00;;;;;22.44;42.39;101211.47;5057108;28;69168;-59
2022/06/29 01:31:31;;;;;;;;;3.33;2.33;;;;;22.43;43.02;101207.88;5056698;28;50575;-59
2022/06/29 01:34:00;;;;;;;;;3.00;2.33;;;;;22.42;42.92;101206.19;5047800;28;69191;-59
2022/06/29 01:36:26;;;;;;;;;3.00;3.00;;;;;22.41;42.92;101206.31;5054229;28;45288;-59
2022/06/29 01:38:51;;;;;;;;;0.33;0.33;;;;;22.39;42.71;101209.16;5042697;28;70917;-59
2022/06/29 01:41:16;;;;;;;;;3.33;3.33;;;;;22.37;43.01;101204.91;5047956;27;73315;-59
2022/06/29 01:43:42;;;;;;;;;2.33;2.33;;;;;22.34;43.07;101208.72;5038436;28;45910;-59
2022/06/29 01:46:07;;;;;;;;;1.33;1.33;;;;;22.32;43.32;101208.03;5055744;28;55910;-61
2022/06/29 01:48:33;;;;;;;;;2.67;2.67;;;;;22.31;42.79;101209.84;5047275;28;45339;-59
2022/06/29 01:50:58;;;;;;;;;5.00;3.33;;;;;22.30;43.33;101204.59;5054234;28;45402;-59
2022/06/29 01:53:24;;;;;;;;;2.33;2.33;;;;;22.29;42.83;101203.75;5038798;28;45407;-59
2022/06/29 01:55:50;;;;;;;;;3.67;2.00;;;;;22.26;43.20;101206.72;5060377;28;45329;-59
2022/06/29 01:58:16;;;;;;;;;3.00;2.00;;;;;22.24;43.14;101208.75;5047066;28;46923;-59
2022/06/29 02:00:41;;;;;;;;;6.00;2.00;;;;;22.22;42.81;101207.16;5055144;28;45500;-59
2022/06/29 02:03:07;;;;;;;;;5.00;2.00;;;;;22.19;43.61;101207.44;5059126;28;45627;-59
2022/06/29 02:05:32;;;;;;;;;4.33;3.00;;;;;22.16;43.65;101207.72;5066104;28;45381;-59
2022/06/29 02:07:58;;;;;;;;;4.67;2.00;;;;;22.10;43.63;101204.59;5056798;28;72422;-59
2022/06/29 02:10:23;;;;;;;;;4.00;2.00;;;;;22.05;43.52;101206.88;5059254;28;45580;-59
2022/06/29 02:12:48;;;;;;;;;1.33;1.33;;;;;22.03;44.05;101208.88;5056672;28;49667;-59
2022/06/29 02:15:14;;;;;;;;;2.00;2.00;;;;;22.00;44.13;101205.59;5054333;28;69532;-59
2022/06/29 02:17:39;;;;;;;;;4.00;3.33;;;;;21.98;43.78;101208.47;5054976;28;72083;-59
2022/06/29 02:20:06;;;;;;;;;2.00;2.00;;;;;21.97;44.10;101202.16;5056361;28;72076;-59
2022/06/29 02:22:31;;;;;;;;;2.00;1.00;;;;;21.93;43.96;101200.75;5061019;28;45473;-58
2022/06/29 02:24:56;;;;;;;;;3.00;3.00;;;;;21.91;44.70;101205.44;5056103;28;45358;-58
2022/06/29 02:27:22;;;;;;;;;1.33;1.33;;;;;21.88;44.43;101204.88;5051566;28;74567;-58
2022/06/29 02:29:47;;;;;;;;;3.00;3.00;;;;;21.86;44.43;101202.28;5043290;28;66892;-58
2022/06/29 02:34:56;;;;;;;;;3.33;2.00;;;;;21.77;44.27;101192.31;5060744;28;45567;-59
2022/06/29 02:37:22;;;;;;;;;2.00;2.00;;;;;21.73;44.35;101194.47;5066367;28;75567;-59
2022/06/29 02:39:47;;;;;;;;;1.33;1.33;;;;;21.70;44.71;101196.59;5058149;27;46539;-59
2022/06/29 02:42:13;;;;;;;;;2.00;2.00;;;;;21.66;44.89;101187.88;5068204;28;55409;-59
2022/06/29 02:44:39;;;;;;;;;1.67;1.67;;;;;21.63;44.21;101191.72;5059791;27;45555;-59
2022/06/29 02:47:06;;;;;;;;;0.33;0.33;;;;;21.60;44.48;101183.03;5059456;28;45429;-59
2022/06/29 02:49:32;;;;;;;;;2.00;2.00;;;;;21.57;44.41;101181.44;5052638;28;45344;-59
2022/06/29 02:51:57;;;;;;;;;3.00;1.00;;;;;21.55;44.65;101182.59;5059966;28;45536;-59
2022/06/29 02:54:22;;;;;;;;;2.00;2.00;;;;;21.54;44.35;101188.97;5061399;28;45710;-59
2022/06/29 02:56:48;;;;;;;;;1.00;1.00;;;;;21.54;44.33;101188.97;5061167;27;53680;-59
2022/06/29 02:59:13;;;;;;;;;1.67;1.00;;;;;21.52;44.86;101189.09;5046604;28;70220;-59
2022/06/29 03:01:38;;;;;;;;;1.00;1.00;;;;;21.51;44.45;101195.53;5071662;27;45463;-59
2022/06/29 03:04:04;;;;;;;;;0.00;0.00;;;;;21.47;44.32;101186.81;5046208;27;68711;-59
2022/06/29 03:06:29;;;;;;;;;0.00;0.00;;;;;21.44;44.75;101187.09;5051344;28;68571;-59
2022/06/29 03:08:54;;;;;;;;;0.67;0.67;;;;;21.42;44.68;101185.50;5047205;28;66402;-59
2022/06/29 03:11:20;;;;;;;;;1.00;1.00;;;;;21.38;44.60;101186.78;5063764;28;56541;-59
2022/06/29 03:13:45;;;;;;;;;2.00;2.00;;;;;21.31;44.21;101186.47;5063852;27;64788;-59
2022/06/29 03:16:10;;;;;;;;;1.00;1.00;;;;;21.28;44.31;101184.91;5060017;27;71262;-60
2022/06/29 03:18:36;;;;;;;;;2.00;2.00;;;;;21.25;44.50;101182.50;5057529;28;69125;-59
2022/06/29 03:21:01;;;;;;;;;2.00;2.00;;;;;21.25;44.75;101187.03;5057039;28;65324;-59
2022/06/29 03:23:26;;;;;;;;;1.00;1.00;;;;;21.23;44.54;101197.16;5053496;28;62470;-59
2022/06/29 03:25:52;;;;;;;;;2.67;2.67;;;;;21.21;44.95;101191.00;5041535;28;74952;-59
2022/06/29 03:28:17;;;;;;;;;1.67;0.67;;;;;21.18;44.68;101189.44;5056241;27;71469;-59
2022/06/29 03:30:42;;;;;;;;;2.00;2.00;;;;;21.16;44.54;101188.72;5065182;28;62850;-59
2022/06/29 03:33:08;;;;;;;;;3.67;2.00;;;;;21.13;44.77;101180.88;5057675;27;45333;-59
2022/06/29 03:35:33;;;;;;;;;1.67;1.67;;;;;21.08;45.17;101184.00;5039255;28;75776;-59
2022/06/29 03:37:59;;;;;;;;;2.00;2.00;;;;;21.05;45.10;101180.69;5043172;28;45383;-59
2022/06/29 03:40:25;;;;;;;;;1.67;1.67;;;;;20.99;45.42;101176.69;5062046;28;66400;-59
2022/06/29 03:42:50;;;;;;;;;4.00;1.00;;;;;20.98;45.33;101177.69;5060112;27;46301;-58
2022/06/29 03:45:16;;;;;;;;;1.33;1.33;;;;;20.97;45.12;101174.09;5041620;28;45794;-59
2022/06/29 03:47:41;;;;;;;;;1.33;1.33;;;;;20.96;44.66;101175.13;5041553;28;53339;-58
2022/06/29 03:50:07;;;;;;;;;1.00;1.00;;;;;20.95;45.18;101170.69;5062509;28;45422;-58
2022/06/29 03:52:33;;;;;;;;;3.00;3.00;;;;;20.96;45.55;101176.94;5061155;28;45285;-59
2022/06/29 03:54:58;;;;;;;;;2.00;2.00;;;;;20.94;45.61;101177.09;5061455;28;74116;-58
2022/06/29 03:57:23;;;;;;;;;2.00;2.00;;;;;20.91;45.50;101181.91;5063045;28;68311;-58
2022/06/29 03:59:49;;;;;;;;;1.00;1.00;;;;;20.88;45.62;101184.91;5055371;28;58886;-58
2022/06/29 04:02:14;;;;;;;;;3.00;3.00;;;;;20.84;45.99;101183.47;5065811;28;46234;-58
2022/06/29 04:04:39;;;;;;;;;3.67;3.33;;;;;20.83;46.24;101190.69;5045890;28;47203;-58
2022/06/29 04:07:05;;;;;;;;;6.33;3.00;;;;;20.81;45.79;101181.88;5054954;28;45435;-60
2022/06/29 04:09:30;;;;;;;;;3.00;3.00;;;;;20.82;45.93;101178.19;5055357;28;57456;-59
2022/06/29 04:11:56;;;;;;;;;4.00;4.00;;;;;20.81;46.52;101187.28;5060173;28;45696;-59
2022/06/29 04:14:24;;;;;;;;;4.00;3.67;;;;;20.79;46.44;101175.72;5052094;28;45458;-58
2022/06/29 04:16:54;;;;;;;;;3.00;3.00;;;;;20.79;46.55;101175.72;5058790;28;45474;-58
2022/06/29 04:19:19;;;;;;;;;7.00;4.00;;;;;20.79;46.29;101178.44;5055370;28;45453;-58
2022/06/29 04:21:45;;;;;;;;;3.00;3.00;;;;;20.80;46.29;101182.88;5060406;28;45587;-58
2022/06/29 04:24:11;;;;;;;;;4.00;4.00;;;;;20.81;46.31;101179.19;5056446;27;46004;-59
2022/06/29 04:26:37;;;;;;;;;2.67;2.67;;;;;20.82;46.24;101179.03;5058674;28;45361;-59
2022/06/29 04:29:02;;;;;;;;;2.00;2.00;;;;;20.83;46.95;101179.88;5059683;28;45267;-59
2022/06/29 04:31:27;;;;;;;;;3.00;3.00;;;;;20.80;46.70;101186.41;5058016;28;45531;-59
2022/06/29 04:33:53;;;;;;;;;2.67;2.67;;;;;20.80;46.39;101182.88;5047835;28;52536;-59
2022/06/29 04:36:18;;;;;;;;;3.00;2.00;;;;;20.76;47.01;101176.84;5057049;28;68290;-59
2022/06/29 04:38:43;;;;;;;;;3.00;3.00;;;;;20.73;47.18;101177.16;5055627;28;45418;-59
2022/06/29 04:41:09;;;;;;;;;3.33;3.00;;;;;20.71;47.06;101181.81;5061165;28;45564;-59
2022/06/29 04:43:34;;;;;;;;;3.33;2.67;;;;;20.69;46.85;101175.66;5048685;27;69619;-59
2022/06/29 04:48:43;;;;;;;;;6.00;3.00;;;;;20.66;47.29;101170.50;5060212;28;45468;-59
2022/06/29 04:51:09;;;;;;;;;4.33;4.33;;;;;20.65;46.95;101176.94;5055053;28;45579;-59
2022/06/29 04:53:34;;;;;;;;;3.00;3.00;;;;;20.66;47.28;101176.78;5054870;28;45794;-59
2022/06/29 04:56:00;;;;;;;;;3.00;3.00;;;;;20.66;47.45;101173.22;5061202;28;45465;-59
2022/06/29 04:58:25;;;;;;;;;4.00;3.67;;;;;20.64;47.31;101176.06;5054276;28;69259;-59
2022/06/29 05:00:51;;;;;;;;;5.00;4.33;;;;;20.63;47.03;101181.59;5056816;28;45420;-59
2022/06/29 05:03:17;;;;;;;;;5.67;4.00;;;;;20.62;47.10;101179.88;5055245;28;58991;-59
2022/06/29 05:05:42;;;;;;;;;3.00;3.00;;;;;20.60;47.17;101176.47;5052143;28;45264;-59
2022/06/29 05:08:08;;;;;;;;;5.00;5.00;;;;;20.60;47.71;101171.91;5053759;28;45365;-59
2022/06/29 05:10:33;;;;;;;;;4.67;4.00;;;;;20.62;48.02;101169.06;5053846;28;51776;-59
2022/06/29 05:12:59;;;;;;;;;4.00;3.33;;;;;20.64;47.15;101176.06;5062205;28;62357;-59
2022/06/29 05:15:24;;;;;;;;;3.33;3.33;;;;;20.65;47.37;101171.53;5051968;28;45397;-59
2022/06/29 05:17:49;;;;;;;;;7.00;3.67;;;;;20.65;47.03;101166.97;5057512;28;63384;-59
2022/06/29 05:20:15;;;;;;;;;3.00;3.00;;;;;20.63;47.18;101171.63;5049234;28;69651;-59
2022/06/29 05:22:41;;;;;;;;;2.33;2.33;;;;;20.62;47.27;101174.47;5058391;28;47598;-59
2022/06/29 05:25:07;;;;;;;;;2.33;2.33;;;;;20.59;47.54;101172.06;5057939;28;68837;-59
2022/06/29 05:27:33;;;;;;;;;4.00;3.33;;;;;20.58;46.88;101173.03;5057921;28;45303;-59
2022/06/29 05:29:58;;;;;;;;;4.33;3.00;;;;;20.58;47.07;101173.03;5057497;28;45316;-59
2022/06/29 05:32:23;;;;;;;;;4.33;3.33;;;;;20.56;46.64;101175.88;5063099;28;45958;-59
2022/06/29 05:34:49;;;;;;;;;1.33;1.33;;;;;20.56;46.77;101175.88;5045959;28;45798;-59
2022/06/29 05:37:14;;;;;;;;;2.33;2.00;;;;;20.57;46.47;101177.59;5056220;28;66514;-59
2022/06/29 05:39:42;;;;;;;;;2.67;1.67;;;;;20.56;46.64;101178.56;5050465;28;70402;-59
2022/06/29 05:42:07;;;;;;;;;2.00;2.00;;;;;20.56;46.26;101180.41;5053338;28;46308;-59
2022/06/29 05:44:33;;;;;;;;;2.67;2.33;;;;;20.56;46.35;101175.88;5053865;28;45424;-59
2022/06/29 05:46:59;;;;;;;;;3.00;2.00;;;;;20.57;46.16;101177.59;5057882;28;65872;-59
2022/06/29 05:49:24;;;;;;;;;2.00;2.00;;;;;20.60;46.08;101182.72;5055786;28;45532;-59
2022/06/29 05:51:50;;;;;;;;;1.00;1.00;;;;;20.59;45.22;101180.16;5057682;28;75237;-58
2022/06/29 05:54:15;;;;;;;;;4.33;2.00;;;;;20.59;45.74;101172.06;5053434;28;66792;-58
2022/06/29 05:56:40;;;;;;;;;3.00;1.00;;;;;20.57;45.50;101172.19;5051568;28;67332;-58
2022/06/29 05:59:06;;;;;;;;;1.00;1.00;;;;;20.59;45.20;101166.66;5069137;27;56928;-58
2022/06/29 06:01:31;;;;;;;;;4.67;1.00;;;;;20.61;45.33;101170.94;5049901;28;46384;-58
2022/06/29 06:03:57;;;;;;;;;3.00;2.67;;;;;20.63;44.71;101165.38;5058950;28;67858;-58
2022/06/29 06:06:22;;;;;;;;;3.00;3.00;;;;;20.65;44.66;101174.22;5077376;27;58982;-58
2022/06/29 06:08:47;;;;;;;;;1.00;1.00;;;;;20.70;44.51;101176.53;5047631;27;68087;-58
2022/06/29 06:11:13;;;;;;;;;2.33;2.33;;;;;20.73;44.61;101181.66;5056789;28;73224;-60
2022/06/29 06:13:38;;;;;;;;;1.33;1.00;;;;;20.75;44.41;101175.16;5068054;27;65878;-59
2022/06/29 06:16:05;;;;;;;;;4.00;2.00;;;;;20.77;44.30;101166.94;5057252;28;45935;-58
2022/06/29 06:18:30;;;;;;;;;1.67;1.00;;;;;20.81;44.14;101176.47;5052094;28;45492;-58
2022/06/29 06:20:56;;;;;;;;;3.00;3.00;;;;;20.77;44.50;101178.59;5065977;27;65946;-58
2022/06/29 06:23:21;;;;;;;;;2.67;1.33;;;;;20.78;44.36;101174.91;5058325;28;71315;-58
2022/06/29 06:25:46;;;;;;;;;2.00;1.33;;;;;20.77;44.04;101180.44;5044609;28;45399;-58
2022/06/29 06:28:12;;;;;;;;;3.00;3.00;;;;;20.79;44.45;101181.13;5051695;28;68852;-59
2022/06/29 06:30:37;;;;;;;;;3.00;3.00;;;;;20.84;43.94;101178.06;5048936;28;45877;-59
2022/06/29 06:33:03;;;;;;;;;2.00;2.00;;;;;20.92;43.93;101175.53;5047301;28;48178;-57
2022/06/29 06:35:28;;;;;;;;;4.33;2.33;;;;;20.99;44.12;101182.13;5048084;28;45332;-55
2022/06/29 06:37:53;;;;;;;;;2.00;1.00;;;;;21.08;43.61;101183.13;5042062;28;69753;-55
2022/06/29 06:43:02;;;;;;;;;4.67;1.67;;;;;21.26;43.45;101183.34;5065300;28;45552;-56
2022/06/29 06:45:28;;;;;;;;;4.00;2.00;;;;;21.41;43.21;101184.66;5053107;28;66513;-57
2022/06/29 06:47:53;;;;;;;;;3.33;3.33;;;;;21.63;43.06;101185.47;5068012;28;45654;-46
2022/06/29 06:50:19;;;;;;;;;2.00;2.00;;;;;21.89;42.80;101174.94;5062875;28;63205;-48
2022/06/29 06:52:44;;;;;;;;;1.33;1.33;;;;;22.19;42.99;101174.94;5058814;28;70862;-47
2022/06/29 06:55:10;;;;;;;;;1.00;1.00;;;;;22.50;42.14;101175.63;5059478;28;45686;-45
2022/06/29 06:57:35;;;;;;;;;0.00;0.00;;;;;22.80;40.91;101169.16;5059879;28;45384;-45
2022/06/29 07:00:01;;;;;;;;;2.00;1.00;;;;;23.08;40.92;101166.47;5058560;28;45683;-47
2022/06/29 07:02:26;;;;;;;;;2.00;2.00;;;;;23.35;40.43;101169.34;5058349;28;45424;-45
2022/06/29 07:04:52;;;;;;;;;0.00;0.00;;;;;23.60;40.39;101160.47;5058751;28;45907;-48
2022/06/29 07:07:17;;;;;;;;;3.00;0.00;;;;;23.88;39.68;101165.84;5056281;28;45766;-48
2022/06/29 07:09:43;;;;;;;;;1.00;1.00;;;;;24.18;39.75;101171.06;5050937;28;45959;-46
2022/06/29 07:12:08;;;;;;;;;0.00;0.00;;;;;24.39;38.29;101168.00;5064696;28;60485;-48
2022/06/29 07:14:34;;;;;;;;;0.00;0.00;;;;;24.51;37.74;101169.44;5066856;27;45468;-46
2022/06/29 07:16:59;;;;;;;;;0.33;0.33;;;;;24.71;38.23;101169.28;5063475;28;45507;-44
2022/06/29 07:19:25;;;;;;;;;0.00;0.00;;;;;24.96;38.25;101166.69;5055827;27;71710;-49
2022/06/29 07:21:50;;;;;;;;;1.50;0.00;;;;;25.17;37.82;101164.38;5066108;28;66520;-47
2022/06/29 07:24:16;;;;;;;;;1.67;0.00;;;;;25.42;36.97;101165.38;5065371;28;45710;-46
2022/06/29 07:26:41;;;;;;;;;1.33;0.00;;;;;25.67;36.95;101167.28;5065423;28;46843;-48
2022/06/29 07:29:06;;;;;;;;;0.75;0.75;;;;;25.87;36.13;101173.28;5064809;28;66084;-48
2022/06/29 07:31:32;;;;;;;;;2.33;1.00;;;;;26.07;36.16;101171.09;5063115;27;45760;-48
2022/06/29 07:33:58;;;;;;;;;0.25;0.00;;;;;26.22;34.95;101166.69;5065956;27;46876;-48
2022/06/29 07:36:25;;;;;;;;;1.25;1.25;;;;;26.39;36.03;101172.13;5065203;27;45518;-49
2022/06/29 07:38:51;;;;;;;;;1.00;0.00;;;;;26.58;34.88;101168.16;5066497;28;46244;-50
2022/06/29 07:41:16;;;;;;;;;0.75;0.75;;;;;26.80;34.28;101165.78;5063777;28;45397;-44
2022/06/29 07:43:41;;;;;;;;;0.75;0.75;;;;;27.00;34.26;101161.63;5065123;27;47688;-45
2022/06/29 07:46:08;;;;;;;;;0.00;0.00;;;;;27.17;33.81;101151.47;5064629;28;46730;-52
2022/06/29 07:48:34;;;;;;;;;0.00;0.00;;;;;27.30;32.83;101158.22;5064628;28;46034;-52
2022/06/29 07:50:59;;;;;;;;;0.00;0.00;;;;;27.40;33.23;101161.63;5064290;27;64473;-48
2022/06/29 07:53:24;;;;;;;;;0.50;0.00;;;;;27.54;33.07;101157.28;5064047;27;64652;-51
2022/06/29 07:55:50;;;;;;;;;2.25;0.75;;;;;27.69;32.98;101151.88;5066614;27;45467;-49
2022/06/29 07:58:16;;;;;;;;;0.00;0.00;;;;;27.84;32.68;101154.69;5064052;28;68814;-49
2022/06/29 08:00:42;;;;;;;;;3.00;0.00;;;;;28.08;32.37;101161.84;5065095;28;45509;-49
2022/06/29 08:03:07;;;;;;;;;2.00;0.00;;;;;28.27;31.80;101162.41;5064275;28;45790;-51
2022/06/29 08:05:34;;;;;;;;;0.00;0.00;;;;;28.42;31.08;101165.16;5064089;28;45650;-49
2022/06/29 08:07:59;;;;;;;;;0.00;0.00;;;;;28.61;31.28;101161.88;5065710;27;46900;-44
2022/06/29 08:10:25;;;;;;;;;0.00;0.00;;;;;28.85;31.34;101154.47;5060212;28;45619;-44
2022/06/29 08:12:50;;;;;;;;;0.25;0.00;;;;;29.11;31.37;101153.13;5080489;27;45518;-44
2022/06/29 08:15:17;;;;;;;;;0.00;0.00;;;;;29.35;31.24;101154.72;5062605;28;45511;-48
2022/06/29 08:17:43;;;;;;;;;0.50;0.50;;;;;29.64;30.74;101163.91;5065942;28;46237;-51
2022/06/29 08:20:09;;;;;;;;;0.00;0.00;;;;;29.89;30.26;101150.69;5062232;28;45518;-48
2022/06/29 08:22:35;;;;;;;;;0.00;0.00;;;;;30.15;29.92;101158.28;5065835;28;45406;-45
2022/06/29 08:25:00;;;;;;;;;2.00;0.50;;;;;30.36;29.21;101145.59;5064265;27;45692;-48
2022/06/29 08:27:26;;;;;;;;;0.50;0.50;;;;;30.57;29.78;101141.97;5063542;28;46212;-52
2022/06/29 08:29:51;;;;;;;;;0.25;0.25;;;;;30.78;29.19;101146.53;5063337;28;45467;-47
2022/06/29 08:32:17;;;;;;;;;3.25;0.25;;;;;30.95;29.19;101147.06;5064284;28;64466;-52
2022/06/29 08:34:42;;;;;;;;;0.00;0.00;;;;;30.96;26.63;101140.53;5061556;28;45528;-49
2022/06/29 08:37:08;;;;;;;;;1.00;1.00;;;;;30.84;28.48;101131.16;5066388;28;52745;-44
2022/06/29 08:39:33;;;;;;;;;3.00;2.25;;;;;31.02;28.26;101133.34;5056748;27;56172;-43
2022/06/29 08:42:01;;;;;;;;;3.00;1.25;;;;;31.26;27.73;101129.25;5063310;28;45445;-48
2022/06/29 08:44:29;;;;;;;;;0.25;0.25;;;;;31.51;27.86;101125.91;5064816;28;45617;-46
2022/06/29 08:46:54;;;;;;;;;2.00;0.25;;;;;31.78;27.13;101129.59;5058516;28;46349;-47
2022/06/29 08:49:20;;;;;;;;;0.00;0.00;;;;;32.03;26.49;101130.91;5058277;28;68969;-48
2022/06/29 08:51:45;;;;;;;;;3.00;1.00;;;;;32.18;27.42;101128.81;5057125;28;45500;-46
2022/06/29 08:54:14;;;;;;;;;0.50;0.50;;;;;32.36;26.65;101138.31;5056386;28;45326;-47
2022/06/29 08:56:39;;;;;;;;;3.00;2.50;;;;;32.72;26.53;101143.34;5047402;28;46230;-48
2022/06/29 08:59:05;;;;;;;;;1.75;0.50;;;;;32.98;26.01;101141.56;5052541;28;68776;-47
2022/06/29 09:01:30;;;;;;;;;0.75;0.75;;;;;32.61;24.60;101135.75;5051922;28;67419;-50
2022/06/29 09:03:56;;;;;;;;;0.75;0.75;;;;;32.24;25.24;101141.72;5064545;28;46718;-50
2022/06/29 09:06:22;;;;;;;;;1.75;1.00;;;;;32.36;25.90;101139.16;5058791;28;47377;-49
2022/06/29 09:08:47;;;;;;;;;1.33;1.33;;;;;32.75;25.36;101140.19;5062462;28;45354;-50
2022/06/29 09:11:24;;;;;;;;;3.00;0.25;;;;;33.13;25.64;101135.81;5061500;27;66896;-51
2022/06/29 09:14:11;;;;;;;;;1.33;1.33;;;;;33.40;24.66;101144.81;5062319;27;45601;-51
2022/06/29 09:16:49;;;;;;;;;5.00;3.33;;;;;33.39;23.76;101145.00;5061837;28;46302;-50
2022/06/29 09:19:15;;;;;;;;;2.00;1.00;;;;;33.40;24.07;101141.19;5062043;28;45555;-46
2022/06/29 09:21:48;;;;;;;;;0.75;0.75;;;;;33.41;23.71;101145.66;5065448;28;45447;-51
2022/06/29 09:24:16;;;;;;;;;0.00;0.00;;;;;33.19;23.20;101148.69;5064783;28;45518;-45
2022/06/29 09:26:41;;;;;;;;;0.67;0.67;;;;;33.14;23.71;101143.84;5071765;28;45961;-46
2022/06/29 09:29:19;;;;;;;;;1.67;0.67;;;;;33.25;22.76;101150.56;5070655;27;67395;-45
2022/06/29 09:31:44;;;;;;;;;1.67;0.67;;;;;33.35;23.12;101152.91;5060954;28;45636;-46
2022/06/29 09:34:19;;;;;;;;;1.67;1.00;;;;;33.64;22.98;101147.84;5071149;28;65854;-44
2022/06/29 09:36:55;;;;;;;;;1.25;0.75;;;;;33.91;23.09;101158.72;5051553;28;45820;-47
2022/06/29 09:39:38;;;;;;;;;4.67;3.33;;;;;34.02;22.87;101158.00;5059832;28;45207;-45
2022/06/29 09:42:17;;;;;;;;;2.00;0.25;;;;;33.93;22.16;101160.16;5058519;28;45351;-48
2022/06/29 09:44:44;;;;;;;;;0.25;0.25;;;;;33.71;22.22;101153.31;5059744;28;45469;-48
2022/06/29 09:47:14;;;;;;;;;2.00;0.00;;;;;33.57;21.38;101163.56;5062181;28;46415;-51
2022/06/29 09:49:40;;;;;;;;;0.75;0.75;;;;;33.87;21.89;101162.97;5052760;28;45535;-52
2022/06/29 09:52:06;;;;;;;;;2.00;2.00;;;;;34.37;22.01;101154.75;5076622;28;64017;-52
2022/06/29 09:54:54;;;;;;;;;2.75;2.75;;;;;35.07;21.78;101161.00;5064069;28;45608;-50
2022/06/29 09:57:22;;;;;;;;;3.00;0.67;;;;;35.62;21.35;101157.34;5060878;28;45529;-51
2022/06/29 10:02:43;;;;;;;;;0.67;0.67;;;;;36.53;19.85;101146.06;5058890;28;45421;-50
2022/06/29 10:05:12;;;;;;;;;0.67;0.67;;;;;36.72;19.64;101143.97;5058347;28;45521;-50
2022/06/29 10:07:46;;;;;;;;;0.67;0.67;;;;;36.72;20.36;101140.38;5056661;28;47175;-44
2022/06/29 10:10:13;;;;;;;;;0.00;0.00;;;;;36.86;19.71;101135.47;5067872;28;45628;-47
2022/06/29 10:15:56;;;;;;;;;0.00;0.00;;;;;36.82;19.74;101118.44;5078743;27;45590;-50
2022/06/29 10:18:35;;;;;;;;;0.00;0.00;;;;;36.73;19.69;101136.53;5064958;28;46036;-51
2022/06/29 10:21:02;;;;;;;;;2.33;1.00;;;;;36.92;19.33;101128.91;5081656;27;45550;-51
2022/06/29 10:23:50;;;;;;;;;0.00;0.00;;;;;37.21;19.43;101126.16;5066715;28;45761;-50
2022/06/29 10:26:32;;;;;;;;;1.67;1.67;;;;;37.60;18.97;101129.16;5064512;28;45824;-51
2022/06/29 10:29:09;;;;;;;;;2.33;0.00;;;;;37.69;18.60;101119.34;5066267;28;46248;-55
2022/06/29 10:31:50;;;;;;;;;0.33;0.00;;;;;36.69;18.32;101114.00;5066639;28;45429;-54
2022/06/29 10:34:30;;;;;;;;;3.00;1.33;;;;;35.65;19.42;101115.38;5065989;28;45596;-44
2022/06/29 10:37:07;;;;;;;;;1.33;0.67;;;;;35.58;20.42;101114.66;5067214;28;45623;-51
2022/06/29 10:39:44;;;;;;;;;1.67;0.00;;;;;35.80;20.28;101111.31;5065017;28;46198;-47
2022/06/29 10:45:09;;;;;;;;;0.67;0.67;;;;;36.08;17.97;101105.13;5066122;28;45444;-54
2022/06/29 10:47:35;;;;;;;;;0.67;0.67;;;;;35.53;18.62;101106.22;5063902;28;45561;-52
2022/06/29 10:50:20;;;;;;;;;0.00;0.00;;;;;35.37;19.04;101099.41;5065704;27;46220;-54
2022/06/29 10:52:53;;;;;;;;;1.33;1.33;;;;;35.17;18.87;101106.03;5065781;28;46872;-54
2022/06/29 10:55:19;;;;;;;;;2.33;2.33;;;;;35.13;19.20;101092.94;5066106;28;45523;-54
2022/06/29 10:57:46;;;;;;;;;5.33;5.33;;;;;35.13;19.42;101098.47;5064781;27;45445;-52
2022/06/29 11:00:21;;;;;;;;;1.33;1.33;;;;;35.22;19.46;101097.06;5064895;28;46352;-52
2022/06/29 11:02:47;;;;;;;;;2.33;1.00;;;;;35.47;18.90;101088.63;5063200;28;45387;-48
2022/06/29 11:05:12;;;;;;;;;3.00;3.00;;;;;35.54;19.38;101102.34;5052587;28;67166;-52
2022/06/29 11:13:11;;;;;;;;;2.00;2.00;;;;;35.40;19.42;101085.97;5065420;28;46835;-52
2022/06/29 11:15:45;;;;;;;;;1.33;1.33;;;;;35.48;19.24;101082.03;5063836;28;45745;-48
2022/06/29 11:18:15;;;;;;;;;0.67;0.67;;;;;35.63;18.96;101081.56;5064484;28;45370;-53
2022/06/29 11:20:49;;;;;;;;;2.00;1.67;;;;;35.70;18.65;101087.84;5064853;28;46882;-53
2022/06/29 11:23:16;;;;;;;;;4.00;2.00;;;;;35.58;19.70;101071.25;5064432;27;45769;-53
2022/06/29 11:25:45;;;;;;;;;0.67;0.67;;;;;35.44;18.87;101076.13;5065626;27;45494;-57
2022/06/29 11:28:11;;;;;;;;;0.67;0.67;;;;;35.25;18.90;101080.00;5064671;28;45403;-48
2022/06/29 11:30:38;;;;;;;;;0.33;0.33;;;;;35.17;18.26;101074.81;5065136;28;47268;-48
2022/06/29 11:33:10;;;;;;;;;0.67;0.67;;;;;35.13;18.92;101073.59;5064827;27;45437;-52
2022/06/29 11:35:37;;;;;;;;;1.00;0.67;;;;;34.78;19.01;101078.69;5065718;28;45386;-47
2022/06/29 11:38:05;;;;;;;;;0.33;0.33;;;;;34.63;18.98;101075.47;5065014;28;46776;-47
2022/06/29 11:40:41;;;;;;;;;0.67;0.67;;;;;34.65;19.20;101075.25;5065143;27;46178;-46
2022/06/29 11:43:07;;;;;;;;;0.67;0.67;;;;;34.83;19.28;101074.38;5065214;28;45719;-47
2022/06/29 11:45:53;;;;;;;;;0.33;0.33;;;;;35.23;18.60;101076.66;5064588;27;45528;-48